createdAt,value
2017-09-04T00:01:06.539Z,86.45
2017-09-04T00:02:16.166Z,86.83
2017-09-04T00:03:26.437Z,87.21
2017-09-04T00:04:35.741Z,87.12
2017-09-04T00:05:45.687Z,86.93
2017-09-04T00:06:55.957Z,87.21
2017-09-04T00:08:06.228Z,87.21
2017-09-04T00:09:16.174Z,86.74
2017-09-04T00:10:26.121Z,86.83
2017-09-04T00:11:36.067Z,87.21
2017-09-04T00:12:46.333Z,87.5
2017-09-04T00:13:56.283Z,87.21
2017-09-04T00:15:06.553Z,87.21
2017-09-04T00:16:16.186Z,87.21
2017-09-04T00:17:26.453Z,87.31
2017-09-04T00:18:36.722Z,87.98
2017-09-04T00:19:46.668Z,87.31
2017-09-04T00:20:56.937Z,88.07
2017-09-04T00:22:07.214Z,88.55
2017-09-04T00:23:17.501Z,88.84
2017-09-04T00:24:27.770Z,89.4
2017-09-04T00:25:37.721Z,89.31
2017-09-04T00:26:47.988Z,89.89
2017-09-04T00:27:58.255Z,90.08
2017-09-04T00:29:08.201Z,90.64
2017-09-04T00:30:18.474Z,90.93
2017-09-04T00:31:28.744Z,91.5
2017-09-04T00:32:39.014Z,91.79
2017-09-04T00:33:49.287Z,91.31
2017-09-04T00:34:59.241Z,91.03
2017-09-04T00:36:09.214Z,90.84
2017-09-04T00:37:19.480Z,89.98
2017-09-04T00:38:29.425Z,91.03
2017-09-04T00:39:39.689Z,90.84
2017-09-04T00:40:49.964Z,91.79
2017-09-04T00:42:00.231Z,91.98
2017-09-04T00:43:10.501Z,91.22
2017-09-04T00:44:20.772Z,91.22
2017-09-04T00:45:31.038Z,90.36
2017-09-04T00:46:40.660Z,90.26
2017-09-04T00:47:50.608Z,90.74
2017-09-04T00:49:00.558Z,90.64
2017-09-04T00:50:10.830Z,90.84
2017-09-04T00:51:20.778Z,90.64
2017-09-04T00:52:31.045Z,91.22
2017-09-04T00:53:40.673Z,90.74
2017-09-04T00:54:50.955Z,90.55
2017-09-04T00:56:00.906Z,90.64
2017-09-04T00:57:10.854Z,90.84
2017-09-04T00:58:21.136Z,91.79
2017-09-04T00:59:31.407Z,90.84
2017-09-04T01:00:41.360Z,90.74
2017-09-04T01:01:51.308Z,90.74
2017-09-04T01:03:01.256Z,91.88
2017-09-04T01:04:11.204Z,91.5
2017-09-04T01:05:21.148Z,90.45
2017-09-04T01:06:31.094Z,90.93
2017-09-04T01:07:41.365Z,90.74
2017-09-04T01:08:51.632Z,90.84
2017-09-04T01:10:01.899Z,90.55
2017-09-04T01:11:12.168Z,90.36
2017-09-04T01:12:22.439Z,90.45
2017-09-04T01:13:32.709Z,90.74
2017-09-04T01:14:42.977Z,90.84
2017-09-04T01:15:53.247Z,90.36
2017-09-04T01:17:03.192Z,90.45
2017-09-04T01:18:13.140Z,90.26
2017-09-04T01:19:23.407Z,90.08
2017-09-04T01:20:33.674Z,90.08
2017-09-04T01:21:43.945Z,90.26
2017-09-04T01:22:53.899Z,90.36
2017-09-04T01:24:04.164Z,90.17
2017-09-04T01:25:14.113Z,90.45
2017-09-04T01:26:24.384Z,90.08
2017-09-04T01:27:34.332Z,90.26
2017-09-04T01:28:44.281Z,90.26
2017-09-04T01:29:54.549Z,90.08
2017-09-04T01:31:04.538Z,89.6
2017-09-04T01:32:14.811Z,89.69
2017-09-04T01:33:25.086Z,89.12
2017-09-04T01:34:35.030Z,89.5
2017-09-04T01:35:45.310Z,89.31
2017-09-04T01:36:55.265Z,89.12
2017-09-04T01:38:05.217Z,89.31
2017-09-04T01:39:15.492Z,89.6
2017-09-04T01:40:25.116Z,89.5
2017-09-04T01:41:35.389Z,88.74
2017-09-04T01:42:45.654Z,88.59
2017-09-04T01:43:55.601Z,88.5
2017-09-04T01:45:05.872Z,88.4
2017-09-04T01:46:16.139Z,88.31
2017-09-04T01:47:26.121Z,87.74
2017-09-04T01:48:36.388Z,88.02
2017-09-04T01:49:46.654Z,87.93
2017-09-04T01:50:56.282Z,87.64
2017-09-04T01:52:06.230Z,87.16
2017-09-04T01:53:16.502Z,87.35
2017-09-04T01:54:26.769Z,87.54
2017-09-04T01:55:37.045Z,87.54
2017-09-04T01:56:47.310Z,87.45
2017-09-04T01:57:57.576Z,87.45
2017-09-04T01:59:07.876Z,87.35
2017-09-04T02:00:18.145Z,87.16
2017-09-04T02:01:28.102Z,87.45
2017-09-04T02:02:38.049Z,87.93
2017-09-04T02:03:48.321Z,88.02
2017-09-04T02:04:57.946Z,88.12
2017-09-04T02:06:07.893Z,87.74
2017-09-04T02:07:17.986Z,87.74
2017-09-04T02:08:27.933Z,87.74
2017-09-04T02:09:37.561Z,88.12
2017-09-04T02:10:47.832Z,87.07
2017-09-04T02:11:58.105Z,87.16
2017-09-04T02:13:08.372Z,86.98
2017-09-04T02:14:18.319Z,87.64
2017-09-04T02:15:28.586Z,87.74
2017-09-04T02:16:38.536Z,87.26
2017-09-04T02:17:48.483Z,87.16
2017-09-04T02:18:58.750Z,87.35
2017-09-04T02:20:08.697Z,87.16
2017-09-04T02:21:18.646Z,87.74
2017-09-04T02:22:28.590Z,87.16
2017-09-04T02:23:38.547Z,87.45
2017-09-04T02:24:48.496Z,87.93
2017-09-04T02:25:58.770Z,87.64
2017-09-04T02:27:08.721Z,87.16
2017-09-04T02:28:18.988Z,87.93
2017-09-04T02:29:29.266Z,87.64
2017-09-04T02:30:38.934Z,87.74
2017-09-04T02:31:49.204Z,88.07
2017-09-04T02:32:59.156Z,87.69
2017-09-04T02:34:08.781Z,87.79
2017-09-04T02:35:18.730Z,87.69
2017-09-04T02:36:29.010Z,87.98
2017-09-04T02:37:38.637Z,87.79
2017-09-04T02:38:48.585Z,88.26
2017-09-04T02:39:58.858Z,88.17
2017-09-04T02:41:08.808Z,88.45
2017-09-04T02:42:18.756Z,87.88
2017-09-04T02:43:29.048Z,87.88
2017-09-04T02:44:39.319Z,87.4
2017-09-04T02:45:49.646Z,87.31
2017-09-04T02:46:59.914Z,87.12
2017-09-04T02:48:09.866Z,87.31
2017-09-04T02:49:20.135Z,87.07
2017-09-04T02:50:30.413Z,87.45
2017-09-04T02:51:40.361Z,86.45
2017-09-04T02:52:50.634Z,87.26
2017-09-04T02:54:00.581Z,87.07
2017-09-04T02:55:10.870Z,87.26
2017-09-04T02:56:21.140Z,86.69
2017-09-04T02:57:31.411Z,86.4
2017-09-04T02:58:41.687Z,86.26
2017-09-04T02:59:51.312Z,87.16
2017-09-04T03:01:01.579Z,85.97
2017-09-04T03:02:11.851Z,87.07
2017-09-04T03:03:21.153Z,86.11
2017-09-04T03:04:31.425Z,86.88
2017-09-04T03:05:41.376Z,86.69
2017-09-04T03:06:51.321Z,86.65
2017-09-04T03:08:01.588Z,86.98
2017-09-04T03:09:11.861Z,86.45
2017-09-04T03:10:21.483Z,86.74
2017-09-04T03:11:31.429Z,86.3
2017-09-04T03:12:41.377Z,86.07
2017-09-04T03:13:51.644Z,87.07
2017-09-04T03:15:01.915Z,86.83
2017-09-04T03:16:12.186Z,85.97
2017-09-04T03:17:22.137Z,86.83
2017-09-04T03:18:32.409Z,86.65
2017-09-04T03:19:42.354Z,86.83
2017-09-04T03:20:52.625Z,86.55
2017-09-04T03:22:02.252Z,86.65
2017-09-04T03:23:12.349Z,86.36
2017-09-04T03:24:22.294Z,86.26
2017-09-04T03:25:32.239Z,86.07
2017-09-04T03:26:42.514Z,86.16
2017-09-04T03:27:52.787Z,86.4
2017-09-04T03:29:02.738Z,87.02
2017-09-04T03:30:13.010Z,86.45
2017-09-04T03:31:22.965Z,86.65
2017-09-04T03:32:32.908Z,87.02
2017-09-04T03:33:42.540Z,86.16
2017-09-04T03:34:52.804Z,86.07
2017-09-04T03:36:02.748Z,85.83
2017-09-04T03:37:12.694Z,86.26
2017-09-04T03:38:22.960Z,86.45
2017-09-04T03:39:32.907Z,86.36
2017-09-04T03:40:42.531Z,86.45
2017-09-04T03:41:52.478Z,86.26
2017-09-04T03:43:02.749Z,86.16
2017-09-04T03:44:13.016Z,85.97
2017-09-04T03:45:22.959Z,86.36
2017-09-04T03:46:33.229Z,86.45
2017-09-04T03:47:43.177Z,85.97
2017-09-04T03:48:53.444Z,86.45
2017-09-04T03:50:03.743Z,86.26
2017-09-04T03:51:13.366Z,86.07
2017-09-04T03:52:23.310Z,86.74
2017-09-04T03:53:33.572Z,86.36
2017-09-04T03:54:43.198Z,86.74
2017-09-04T03:55:53.148Z,86.45
2017-09-04T03:57:03.415Z,86.07
2017-09-04T03:58:13.040Z,86.65
2017-09-04T03:59:22.670Z,86.83
2017-09-04T04:00:32.292Z,86.16
2017-09-04T04:01:42.559Z,86.16
2017-09-04T04:02:52.506Z,86.3
2017-09-04T04:04:02.129Z,86.21
2017-09-04T04:05:12.074Z,86.21
2017-09-04T04:06:21.699Z,86.55
2017-09-04T04:07:31.967Z,86.45
2017-09-04T04:08:42.242Z,86.74
2017-09-04T04:09:52.508Z,86.26
2017-09-04T04:11:02.775Z,86.16
2017-09-04T04:12:13.043Z,86.83
2017-09-04T04:13:23.312Z,86.26
2017-09-04T04:14:33.261Z,86.55
2017-09-04T04:15:43.527Z,86.74
2017-09-04T04:16:53.474Z,86.26
2017-09-04T04:18:03.741Z,86.36
2017-09-04T04:19:13.374Z,86.16
2017-09-04T04:20:23.320Z,86.83
2017-09-04T04:21:33.588Z,85.88
2017-09-04T04:22:43.214Z,86.74
2017-09-04T04:23:53.482Z,87.02
2017-09-04T04:25:03.759Z,86.07
2017-09-04T04:26:14.033Z,86.83
2017-09-04T04:27:24.300Z,85.97
2017-09-04T04:28:34.250Z,86.36
2017-09-04T04:29:44.517Z,86.93
2017-09-04T04:30:54.786Z,86.26
2017-09-04T04:32:05.055Z,86.45
2017-09-04T04:33:15.002Z,86.83
2017-09-04T04:34:24.953Z,86.26
2017-09-04T04:35:34.899Z,86.11
2017-09-04T04:36:45.173Z,86.4
2017-09-04T04:37:55.439Z,86.69
2017-09-04T04:39:05.709Z,87.07
2017-09-04T04:40:15.660Z,86.69
2017-09-04T04:41:25.607Z,86.88
2017-09-04T04:42:35.560Z,86.78
2017-09-04T04:43:45.507Z,86.49
2017-09-04T04:44:55.451Z,86.21
2017-09-04T04:46:04.754Z,85.83
2017-09-04T04:47:15.022Z,86.21
2017-09-04T04:48:25.289Z,86.3
2017-09-04T04:49:35.236Z,86.21
2017-09-04T04:50:45.529Z,86.4
2017-09-04T04:51:55.474Z,86.49
2017-09-04T04:53:05.124Z,86.4
2017-09-04T04:54:15.408Z,86.21
2017-09-04T04:55:25.359Z,86.21
2017-09-04T04:56:35.623Z,86.3
2017-09-04T04:57:45.892Z,86.02
2017-09-04T04:58:56.165Z,86.59
2017-09-04T05:00:06.432Z,86.49
2017-09-04T05:01:16.376Z,86.02
2017-09-04T05:02:26.646Z,85.54
2017-09-04T05:03:36.270Z,85.45
2017-09-04T05:04:46.218Z,86.4
2017-09-04T05:05:56.165Z,86.49
2017-09-04T05:07:06.434Z,86.98
2017-09-04T05:08:16.704Z,86.88
2017-09-04T05:09:26.971Z,86.98
2017-09-04T05:10:36.597Z,86.3
2017-09-04T05:11:46.543Z,85.93
2017-09-04T05:12:56.487Z,85.93
2017-09-04T05:14:06.760Z,86.21
2017-09-04T05:15:16.738Z,86.4
2017-09-04T05:16:27.014Z,85.83
2017-09-04T05:17:36.324Z,86.4
2017-09-04T05:18:45.956Z,86.3
2017-09-04T05:19:56.221Z,86.11
2017-09-04T05:21:06.489Z,86.21
2017-09-04T05:22:16.757Z,86.21
2017-09-04T05:23:26.704Z,86.44
2017-09-04T05:24:36.328Z,86.4
2017-09-04T05:25:46.274Z,85.83
2017-09-04T05:26:56.541Z,86.21
2017-09-04T05:28:06.516Z,85.83
2017-09-04T05:29:16.466Z,85.54
2017-09-04T05:30:26.089Z,85.45
2017-09-04T05:31:36.361Z,85.25
2017-09-04T05:32:46.633Z,85.45
2017-09-04T05:33:56.583Z,86.02
2017-09-04T05:35:06.853Z,86.16
2017-09-04T05:36:17.122Z,86.02
2017-09-04T05:37:27.389Z,86.16
2017-09-04T05:38:37.692Z,85.77
2017-09-04T05:39:47.643Z,86.3
2017-09-04T05:40:57.268Z,85.83
2017-09-04T05:42:07.537Z,85.93
2017-09-04T05:43:17.809Z,85.25
2017-09-04T05:44:27.756Z,85.93
2017-09-04T05:45:38.026Z,85.45
2017-09-04T05:46:47.330Z,86.11
2017-09-04T05:47:57.274Z,85.58
2017-09-04T05:49:07.221Z,86.06
2017-09-04T05:50:17.505Z,85.49
2017-09-04T05:51:27.775Z,85.3
2017-09-04T05:52:38.046Z,84.97
2017-09-04T05:53:48.314Z,84.78
2017-09-04T05:54:58.583Z,84.78
2017-09-04T05:56:08.895Z,85.45
2017-09-04T05:57:19.159Z,85.35
2017-09-04T05:58:29.426Z,85.73
2017-09-04T05:59:39.372Z,85.64
2017-09-04T06:00:49.641Z,84.97
2017-09-04T06:01:59.592Z,85.25
2017-09-04T06:03:09.549Z,85.45
2017-09-04T06:04:19.817Z,85.45
2017-09-04T06:05:30.085Z,85.54
2017-09-04T06:06:40.031Z,85.83
2017-09-04T06:07:49.655Z,86.02
2017-09-04T06:08:59.937Z,85.54
2017-09-04T06:10:10.203Z,85.54
2017-09-04T06:11:20.468Z,85.73
2017-09-04T06:12:30.417Z,85.35
2017-09-04T06:13:40.721Z,85.83
2017-09-04T06:14:50.673Z,86.02
2017-09-04T06:16:00.941Z,85.21
2017-09-04T06:17:10.889Z,85.83
2017-09-04T06:18:20.841Z,86.21
2017-09-04T06:19:30.798Z,86.49
2017-09-04T06:20:41.071Z,86.4
2017-09-04T06:21:50.737Z,85.83
2017-09-04T06:23:01.004Z,86.25
2017-09-04T06:24:11.297Z,86.21
2017-09-04T06:25:21.575Z,85.64
2017-09-04T06:26:31.843Z,85.73
2017-09-04T06:27:41.790Z,85.73
2017-09-04T06:28:52.058Z,86.11
2017-09-04T06:30:02.005Z,85.83
2017-09-04T06:31:12.273Z,86.16
2017-09-04T06:32:22.552Z,85.83
2017-09-04T06:33:32.533Z,85.68
2017-09-04T06:34:42.483Z,85.77
2017-09-04T06:35:52.429Z,86.63
2017-09-04T06:37:02.697Z,85.83
2017-09-04T06:38:12.963Z,85.73
2017-09-04T06:39:23.229Z,85.58
2017-09-04T06:40:33.177Z,85.68
2017-09-04T06:41:43.456Z,85.77
2017-09-04T06:42:53.082Z,85.49
2017-09-04T06:44:03.035Z,85.58
2017-09-04T06:45:12.985Z,85.49
2017-09-04T06:46:23.261Z,84.63
2017-09-04T06:47:33.225Z,84.92
2017-09-04T06:48:43.491Z,84.63
2017-09-04T06:49:53.762Z,85.3
2017-09-04T06:51:04.029Z,84.82
2017-09-04T06:52:13.981Z,84.63
2017-09-04T06:53:24.260Z,84.72
2017-09-04T06:54:34.205Z,84.72
2017-09-04T06:55:44.470Z,84.53
2017-09-04T06:56:54.415Z,84.25
2017-09-04T06:58:04.362Z,83.96
2017-09-04T06:59:14.628Z,84.06
2017-09-04T07:00:24.901Z,84.16
2017-09-04T07:01:34.525Z,83.48
2017-09-04T07:02:44.793Z,83.01
2017-09-04T07:03:55.066Z,84.06
2017-09-04T07:05:05.336Z,83.58
2017-09-04T07:06:15.606Z,84.2
2017-09-04T07:07:25.233Z,83.67
2017-09-04T07:08:35.498Z,84
2017-09-04T07:09:45.446Z,83.58
2017-09-04T07:10:55.390Z,84
2017-09-04T07:12:05.015Z,83.53
2017-09-04T07:13:14.966Z,83.24
2017-09-04T07:14:25.235Z,83.34
2017-09-04T07:15:35.509Z,82.57
2017-09-04T07:16:45.455Z,83.05
2017-09-04T07:17:55.409Z,83.34
2017-09-04T07:19:05.678Z,83.34
2017-09-04T07:20:15.947Z,83.34
2017-09-04T07:21:26.218Z,83.34
2017-09-04T07:22:35.842Z,83.53
2017-09-04T07:23:45.801Z,83.34
2017-09-04T07:24:55.757Z,83.24
2017-09-04T07:26:06.026Z,83.14
2017-09-04T07:27:15.334Z,82.86
2017-09-04T07:28:27.962Z,82.29
2017-09-04T07:29:37.911Z,82.38
2017-09-04T07:30:47.860Z,81.52
2017-09-04T07:31:58.167Z,81.62
2017-09-04T07:33:08.433Z,81.81
2017-09-04T07:34:18.381Z,81.62
2017-09-04T07:35:28.648Z,82.04
2017-09-04T07:36:38.271Z,81.95
2017-09-04T07:37:48.227Z,81.09
2017-09-04T07:38:58.173Z,81.09
2017-09-04T07:40:08.127Z,81.18
2017-09-04T07:41:18.076Z,81.09
2017-09-04T07:42:28.349Z,80.99
2017-09-04T07:43:38.617Z,80.8
2017-09-04T07:44:48.562Z,79.98
2017-09-04T07:45:58.846Z,79.69
2017-09-04T07:47:08.474Z,79.6
2017-09-04T07:48:17.779Z,79.6
2017-09-04T07:49:27.726Z,79.22
2017-09-04T07:50:37.677Z,79.5
2017-09-04T07:51:47.950Z,78.83
2017-09-04T07:52:58.226Z,78.83
2017-09-04T07:54:08.181Z,78.55
2017-09-04T07:55:18.132Z,78.78
2017-09-04T07:56:28.402Z,78.64
2017-09-04T07:57:38.674Z,78.2
2017-09-04T07:58:48.623Z,78.3
2017-09-04T07:59:58.907Z,78.01
2017-09-04T08:01:08.863Z,76.39
2017-09-04T08:02:18.816Z,77.15
2017-09-04T08:03:29.085Z,77.63
2017-09-04T08:04:39.353Z,77.72
2017-09-04T08:05:49.629Z,77.44
2017-09-04T08:06:59.576Z,77.25
2017-09-04T08:08:09.884Z,77.34
2017-09-04T08:09:19.517Z,77.25
2017-09-04T08:10:29.788Z,77.06
2017-09-04T08:11:39.735Z,76.86
2017-09-04T08:12:49.363Z,77.44
2017-09-04T08:13:59.311Z,76.77
2017-09-04T08:15:08.962Z,76.57
2017-09-04T08:16:19.249Z,76.96
2017-09-04T08:17:28.874Z,76.67
2017-09-04T08:18:38.505Z,75.71
2017-09-04T08:19:48.130Z,76.2
2017-09-04T08:20:58.081Z,75.81
2017-09-04T08:22:08.029Z,76.39
2017-09-04T08:23:17.982Z,76.2
2017-09-04T08:24:28.256Z,76.2
2017-09-04T08:25:38.526Z,76.67
2017-09-04T08:26:48.151Z,76.77
2017-09-04T08:27:58.421Z,77.25
2017-09-04T08:29:08.696Z,77.25
2017-09-04T08:30:18.968Z,77.72
2017-09-04T08:31:28.923Z,77.53
2017-09-04T08:32:39.198Z,77.25
2017-09-04T08:33:48.824Z,76.86
2017-09-04T08:34:59.092Z,76.29
2017-09-04T08:36:09.364Z,76.39
2017-09-04T08:37:19.312Z,76.2
2017-09-04T08:38:29.259Z,76.2
2017-09-04T08:39:39.530Z,76.57
2017-09-04T08:40:49.477Z,76.57
2017-09-04T08:41:59.426Z,76.48
2017-09-04T08:43:09.416Z,76.57
2017-09-04T08:44:19.687Z,76.2
2017-09-04T08:45:29.957Z,76.2
2017-09-04T08:46:40.238Z,76.29
2017-09-04T08:47:50.201Z,76.39
2017-09-04T08:49:00.471Z,76.96
2017-09-04T08:50:10.740Z,76.48
2017-09-04T08:51:20.368Z,76.86
2017-09-04T08:52:30.315Z,77.25
2017-09-04T08:53:40.920Z,76.48
2017-09-04T08:54:50.546Z,76.67
2017-09-04T08:56:00.812Z,76.1
2017-09-04T08:57:10.437Z,76.2
2017-09-04T08:58:20.706Z,76.2
2017-09-04T08:59:30.331Z,75.62
2017-09-04T09:00:40.599Z,75.81
2017-09-04T09:01:50.553Z,76.29
2017-09-04T09:03:00.824Z,76
2017-09-04T09:04:11.101Z,75.71
2017-09-04T09:05:21.371Z,75.81
2017-09-04T09:06:31.321Z,75.81
2017-09-04T09:07:41.271Z,76.2
2017-09-04T09:08:51.550Z,76
2017-09-04T09:10:01.823Z,76.1
2017-09-04T09:11:12.095Z,76.77
2017-09-04T09:12:22.371Z,76.57
2017-09-04T09:13:31.677Z,76.57
2017-09-04T09:14:41.948Z,76.29
2017-09-04T09:15:51.902Z,75.34
2017-09-04T09:17:02.178Z,74.57
2017-09-04T09:18:12.128Z,75.52
2017-09-04T09:19:21.759Z,75.81
2017-09-04T09:20:32.035Z,75.91
2017-09-04T09:21:42.311Z,75.91
2017-09-04T09:22:51.937Z,75.81
2017-09-04T09:24:02.205Z,75.81
2017-09-04T09:25:12.478Z,75.34
2017-09-04T09:26:22.427Z,76.2
2017-09-04T09:27:32.377Z,76
2017-09-04T09:28:42.324Z,76.2
2017-09-04T09:29:54.735Z,76
2017-09-04T09:31:05.008Z,75.24
2017-09-04T09:32:14.637Z,75.52
2017-09-04T09:33:24.293Z,75.62
2017-09-04T09:34:33.601Z,75.71
2017-09-04T09:35:43.551Z,75.71
2017-09-04T09:36:53.824Z,75.81
2017-09-04T09:38:03.772Z,76
2017-09-04T09:39:13.399Z,75.81
2017-09-04T09:40:22.708Z,76.1
2017-09-04T09:41:32.337Z,75.81
2017-09-04T09:42:42.286Z,75.81
2017-09-04T09:43:51.913Z,75.81
2017-09-04T09:45:02.186Z,76
2017-09-04T09:46:12.136Z,75.52
2017-09-04T09:47:22.409Z,75.05
2017-09-04T09:48:32.046Z,75.43
2017-09-04T09:49:42.322Z,75.62
2017-09-04T09:50:51.949Z,75.62
2017-09-04T09:52:02.220Z,75.43
2017-09-04T09:53:12.494Z,75.43
2017-09-04T09:54:22.129Z,75.43
2017-09-04T09:55:32.100Z,74.66
2017-09-04T09:56:42.054Z,74.38
2017-09-04T09:57:51.688Z,74.19
2017-09-04T09:59:01.959Z,74.28
2017-09-04T10:00:11.910Z,74.57
2017-09-04T10:01:22.185Z,75.37
2017-09-04T10:02:32.138Z,75.24
2017-09-04T10:03:42.408Z,74.7
2017-09-04T10:04:52.687Z,74.41
2017-09-04T10:06:02.962Z,74.41
2017-09-04T10:07:13.232Z,74.04
2017-09-04T10:08:23.185Z,74.51
2017-09-04T10:09:33.136Z,73.65
2017-09-04T10:10:43.413Z,73.46
2017-09-04T10:11:53.722Z,74.13
2017-09-04T10:13:03.349Z,73.84
2017-09-04T10:14:13.620Z,73.94
2017-09-04T10:15:23.575Z,73.55
2017-09-04T10:16:33.522Z,74.45
2017-09-04T10:17:43.150Z,73.4
2017-09-04T10:18:53.424Z,73.97
2017-09-04T10:20:03.703Z,74.74
2017-09-04T10:21:13.981Z,73.59
2017-09-04T10:22:24.248Z,73.59
2017-09-04T10:23:33.875Z,73.59
2017-09-04T10:24:44.149Z,73.88
2017-09-04T10:25:54.099Z,73.3
2017-09-04T10:27:04.369Z,73.88
2017-09-04T10:28:14.318Z,73.02
2017-09-04T10:29:24.267Z,74.07
2017-09-04T10:30:34.216Z,74.07
2017-09-04T10:31:44.170Z,73.69
2017-09-04T10:32:54.123Z,74.74
2017-09-04T10:34:04.396Z,75.02
2017-09-04T10:35:14.344Z,73.59
2017-09-04T10:36:23.974Z,73.97
2017-09-04T10:37:33.923Z,73.59
2017-09-04T10:38:44.197Z,72.83
2017-09-04T10:39:54.470Z,72.92
2017-09-04T10:41:04.741Z,72.83
2017-09-04T10:42:15.010Z,72.63
2017-09-04T10:43:25.288Z,72.92
2017-09-04T10:44:35.557Z,73.59
2017-09-04T10:45:45.828Z,73.11
2017-09-04T10:46:56.104Z,73.59
2017-09-04T10:48:06.059Z,73.79
2017-09-04T10:49:16.329Z,74.36
2017-09-04T10:50:25.959Z,74.16
2017-09-04T10:51:35.908Z,73.84
2017-09-04T10:52:46.180Z,73.84
2017-09-04T10:53:55.806Z,74.61
2017-09-04T10:55:06.078Z,74.45
2017-09-04T10:56:16.347Z,74.45
2017-09-04T10:57:26.624Z,74.51
2017-09-04T10:58:36.253Z,73.84
2017-09-04T10:59:46.528Z,74.22
2017-09-04T11:00:56.805Z,74.41
2017-09-04T11:02:07.077Z,74.93
2017-09-04T11:03:17.025Z,74.74
2017-09-04T11:04:27.122Z,73.5
2017-09-04T11:05:36.754Z,73.5
2017-09-04T11:06:47.026Z,73.3
2017-09-04T11:07:57.295Z,73.11
2017-09-04T11:09:07.568Z,72.16
2017-09-04T11:10:17.520Z,73.11
2017-09-04T11:11:27.793Z,73.11
2017-09-04T11:12:37.743Z,72.92
2017-09-04T11:13:47.375Z,72.73
2017-09-04T11:14:57.324Z,71.77
2017-09-04T11:16:07.283Z,71.3
2017-09-04T11:17:17.559Z,71.11
2017-09-04T11:18:27.831Z,71.11
2017-09-04T11:19:38.102Z,71.58
2017-09-04T11:20:48.051Z,71.48
2017-09-04T11:21:58.000Z,71.11
2017-09-04T11:23:07.950Z,71.2
2017-09-04T11:24:18.224Z,71.2
2017-09-04T11:25:28.501Z,70.72
2017-09-04T11:26:38.451Z,70.53
2017-09-04T11:27:48.722Z,70.91
2017-09-04T11:28:58.995Z,70.62
2017-09-04T11:30:09.275Z,71.3
2017-09-04T11:31:19.227Z,71.48
2017-09-04T11:32:28.537Z,71.3
2017-09-04T11:33:38.813Z,71.39
2017-09-04T11:34:48.762Z,71.68
2017-09-04T11:35:59.034Z,71.39
2017-09-04T11:37:08.983Z,71.48
2017-09-04T11:38:19.261Z,70.72
2017-09-04T11:39:29.532Z,71.11
2017-09-04T11:40:39.807Z,71.58
2017-09-04T11:41:50.096Z,72.41
2017-09-04T11:43:00.367Z,71.83
2017-09-04T11:44:10.314Z,72.12
2017-09-04T11:45:20.617Z,71.93
2017-09-04T11:46:29.920Z,72.31
2017-09-04T11:47:40.189Z,72.31
2017-09-04T11:48:50.143Z,72.88
2017-09-04T11:50:00.426Z,72.69
2017-09-04T11:51:10.717Z,72.98
2017-09-04T11:52:20.664Z,72.98
2017-09-04T11:53:30.614Z,73.27
2017-09-04T11:54:40.243Z,74.04
2017-09-04T11:55:50.197Z,73.65
2017-09-04T11:57:02.469Z,74.22
2017-09-04T11:58:11.454Z,74.8
2017-09-04T11:59:21.411Z,75.76
2017-09-04T12:00:31.682Z,75.56
2017-09-04T12:01:41.659Z,75.95
2017-09-04T12:02:51.611Z,75.95
2017-09-04T12:04:01.883Z,75.56
2017-09-04T12:05:12.152Z,75.47
2017-09-04T12:06:22.098Z,76.57
2017-09-04T12:07:31.723Z,77.34
2017-09-04T12:08:41.355Z,77.53
2017-09-04T12:09:51.627Z,78.2
2017-09-04T12:11:01.904Z,77.92
2017-09-04T12:12:12.183Z,78.2
2017-09-04T12:13:22.451Z,78.26
2017-09-04T12:14:32.426Z,78.64
2017-09-04T12:15:42.702Z,78.26
2017-09-04T12:16:52.653Z,79.31
2017-09-04T12:18:02.931Z,79.6
2017-09-04T12:19:12.912Z,79.88
2017-09-04T12:20:22.865Z,79.6
2017-09-04T12:21:32.170Z,79.02
2017-09-04T12:22:42.436Z,79.88
2017-09-04T12:23:52.382Z,80.17
2017-09-04T12:25:01.686Z,79.88
2017-09-04T12:26:11.957Z,80.22
2017-09-04T12:27:21.588Z,80.32
2017-09-04T12:28:31.547Z,80.22
2017-09-04T12:29:41.504Z,80.7
2017-09-04T12:30:51.460Z,80.8
2017-09-04T12:32:01.407Z,80.04
2017-09-04T12:33:11.046Z,80.7
2017-09-04T12:34:21.004Z,79.85
2017-09-04T12:35:30.987Z,79.75
2017-09-04T12:36:40.614Z,80.13
2017-09-04T12:37:50.883Z,79.85
2017-09-04T12:39:00.514Z,80.99
2017-09-04T12:40:10.785Z,80.99
2017-09-04T12:41:20.731Z,80.8
2017-09-04T12:42:30.686Z,80.8
2017-09-04T12:43:40.639Z,80.04
2017-09-04T12:44:50.906Z,79.56
2017-09-04T12:46:01.184Z,80.13
2017-09-04T12:47:11.459Z,80.13
2017-09-04T12:48:21.727Z,80.22
2017-09-04T12:49:31.995Z,80.61
2017-09-04T12:50:42.264Z,79.85
2017-09-04T12:51:52.531Z,79.94
2017-09-04T12:53:02.478Z,80.41
2017-09-04T12:54:12.751Z,80.32
2017-09-04T12:55:22.696Z,82.04
2017-09-04T12:56:32.969Z,81.27
2017-09-04T12:57:43.239Z,80.51
2017-09-04T12:58:53.186Z,80.99
2017-09-04T13:00:03.454Z,80.13
2017-09-04T13:01:13.080Z,80.04
2017-09-04T13:02:23.030Z,80.04
2017-09-04T13:03:32.983Z,80.32
2017-09-04T13:04:42.935Z,80.51
2017-09-04T13:05:53.208Z,80.9
2017-09-04T13:07:03.154Z,80.51
2017-09-04T13:08:13.099Z,81.18
2017-09-04T13:09:23.366Z,81.47
2017-09-04T13:10:33.634Z,82.14
2017-09-04T13:11:43.262Z,81.76
2017-09-04T13:12:53.213Z,81.56
2017-09-04T13:14:03.483Z,81.27
2017-09-04T13:15:13.439Z,82.23
2017-09-04T13:16:23.066Z,82.32
2017-09-04T13:17:33.334Z,82.61
2017-09-04T13:18:43.602Z,83.18
2017-09-04T13:19:53.229Z,83.09
2017-09-04T13:21:03.501Z,83.18
2017-09-04T13:22:13.451Z,84.05
2017-09-04T13:23:23.718Z,83.67
2017-09-04T13:24:33.665Z,84.29
2017-09-04T13:25:43.291Z,84.58
2017-09-04T13:26:52.925Z,84.77
2017-09-04T13:28:03.200Z,84.86
2017-09-04T13:29:13.151Z,84.48
2017-09-04T13:30:23.101Z,85.05
2017-09-04T13:31:33.052Z,85.44
2017-09-04T13:32:43.359Z,85.44
2017-09-04T13:33:53.308Z,85.82
2017-09-04T13:35:03.579Z,86.49
2017-09-04T13:36:13.524Z,86.3
2017-09-04T13:37:23.798Z,86.39
2017-09-04T13:38:33.427Z,86.2
2017-09-04T13:39:43.413Z,86.96
2017-09-04T13:40:53.682Z,86.68
2017-09-04T13:42:03.948Z,86.96
2017-09-04T13:43:13.901Z,87.25
2017-09-04T13:44:24.175Z,87.44
2017-09-04T13:45:34.158Z,87.06
2017-09-04T13:46:43.785Z,87.73
2017-09-04T13:47:53.407Z,88.2
2017-09-04T13:49:03.678Z,88.11
2017-09-04T13:50:13.948Z,88.4
2017-09-04T13:51:24.222Z,88.59
2017-09-04T13:52:34.492Z,88.59
2017-09-04T13:53:44.440Z,88.97
2017-09-04T13:54:54.066Z,89.06
2017-09-04T13:56:04.049Z,89.64
2017-09-04T13:57:14.318Z,89.35
2017-09-04T13:58:24.587Z,90.21
2017-09-04T13:59:34.533Z,90.31
2017-09-04T14:00:44.522Z,89.92
2017-09-04T14:01:54.795Z,89.45
2017-09-04T14:03:05.083Z,89.73
2017-09-04T14:04:15.351Z,89.73
2017-09-04T14:05:24.974Z,89.73
2017-09-04T14:06:35.255Z,90.21
2017-09-04T14:07:45.259Z,90.59
2017-09-04T14:08:55.526Z,90.78
2017-09-04T14:10:05.150Z,91.16
2017-09-04T14:11:15.099Z,90.97
2017-09-04T14:12:25.366Z,90.97
2017-09-04T14:13:35.640Z,91.31
2017-09-04T14:14:45.285Z,90.97
2017-09-04T14:15:55.233Z,91.02
2017-09-04T14:17:05.504Z,91.88
2017-09-04T14:18:15.772Z,91.88
2017-09-04T14:19:26.077Z,91.6
2017-09-04T14:20:36.355Z,92.46
2017-09-04T14:21:45.979Z,92.26
2017-09-04T14:22:55.637Z,92.36
2017-09-04T14:24:05.917Z,93.02
2017-09-04T14:25:16.185Z,92.65
2017-09-04T14:26:26.457Z,92.65
2017-09-04T14:27:36.089Z,92.46
2017-09-04T14:28:46.360Z,93.02
2017-09-04T14:29:56.323Z,92.74
2017-09-04T14:31:06.589Z,91.98
2017-09-04T14:32:16.536Z,92.17
2017-09-04T14:33:26.162Z,92.83
2017-09-04T14:34:36.110Z,93.41
2017-09-04T14:35:46.387Z,93.51
2017-09-04T14:36:56.680Z,93.02
2017-09-04T14:38:06.950Z,92.83
2017-09-04T14:39:17.225Z,93.88
2017-09-04T14:40:27.498Z,94.07
2017-09-04T14:41:37.123Z,93.7
2017-09-04T14:42:46.747Z,93.6
2017-09-04T14:43:56.373Z,94.27
2017-09-04T14:45:06.642Z,93.98
2017-09-04T14:46:16.593Z,94.7
2017-09-04T14:47:26.219Z,94.36
2017-09-04T14:48:36.492Z,94.46
2017-09-04T14:49:46.760Z,94.79
2017-09-04T14:50:57.031Z,94.51
2017-09-04T14:52:07.301Z,94.84
2017-09-04T14:53:17.575Z,94.7
2017-09-04T14:54:27.875Z,95.32
2017-09-04T14:55:37.828Z,94.79
2017-09-04T14:56:48.100Z,94.41
2017-09-04T14:57:58.056Z,94.89
2017-09-04T14:59:08.322Z,94.79
2017-09-04T15:00:18.305Z,94.41
2017-09-04T15:01:28.575Z,94.7
2017-09-04T15:02:38.842Z,95.75
2017-09-04T15:03:48.792Z,95.94
2017-09-04T15:04:59.063Z,95.65
2017-09-04T15:06:09.337Z,95.84
2017-09-04T15:07:19.604Z,96.08